Date,TemperatureHighF,TemperatureAvgF,TemperatureLowF,DewpointHighF,DewpointAvgF,DewpointLowF,HumidityHigh,HumidityAvg,HumidityLow,PressureMaxIn,PressureMinIn,WindSpeedMaxMPH,WindSpeedAvgMPH,GustSpeedMaxMPH,PrecipitationSumIn
2013-2-1,19,14,8,12,6,0,81,71,60,30.34,29.97,0,0,0,0.00
2013-2-2,24,15,-20,18,8,-59,83,75,10,30.29,30.01,0,0,0,1.56
2013-2-3,48,14,4,15,7,-6,85,74,10,30.09,29.92,0,0,0,0.00
2013-2-4,25,20,15,18,14,8,84,79,70,30.10,29.95,0,0,0,0.00
2013-2-5,28,22,14,24,17,10,87,80,64,30.03,29.90,2,0,2,0.00
2013-2-6,35,23,11,23,14,7,86,70,44,30.37,29.92,4,1,7,0.06
2013-2-7,40,30,18,27,22,14,82,72,57,29.98,29.55,6,1,7,0.06
2013-2-8,30,26,15,27,21,11,89,80,67,30.04,29.48,8,1,8,0.00
2013-2-9,35,20,8,22,13,5,87,74,49,30.12,29.99,4,1,5,0.05
2013-2-10,42,30,18,34,24,14,88,79,54,29.99,29.41,4,1,6,0.27
2013-2-11,42,37,31,39,29,23,91,74,62,29.60,29.28,17,5,17,0.01
2013-2-12,31,31,31,24,24,24,75,74,73,29.62,29.59,8,4,9,0.00
2013-2-13,31,30,18,24,24,14,84,75,74,30.56,29.62,4,3,7,0.00
2013-2-14,39,33,26,34,28,22,89,82,69,30.01,29.85,11,3,11,0.00
2013-2-15,34,28,21,27,16,10,75,61,45,30.27,30.01,8,3,9,0.00
2013-2-16,27,20,15,17,12,7,81,71,50,30.25,30.11,9,1,9,0.00
2013-2-17,28,18,9,11,5,-22,82,60,10,30.34,30.19,8,2,10,0.00
2013-2-18,45,29,18,34,16,4,72,57,48,30.35,29.56,10,1,10,0.00
2013-2-19,45,28,17,38,22,9,89,77,61,29.88,29.39,11,2,11,0.17
2013-2-20,22,19,15,14,10,4,74,65,56,30.17,29.88,0,0,0,0.00
2013-2-21,26,22,20,16,14,11,78,70,59,30.30,30.16,2,0,2,0.00
2013-2-22,33,27,21,30,23,16,90,85,77,30.19,29.82,4,0,4,0.00
2013-2-23,38,30,24,30,21,15,89,68,51,29.87,29.81,8,2,8,0.14
2013-2-24,38,28,21,25,20,15,83,73,54,30.09,29.84,8,2,8,0.02
2013-2-25,44,30,19,32,21,16,89,70,44,30.16,30.03,5,1,5,0.00
2013-2-26,35,31,26,30,25,19,91,79,63,30.06,29.44,10,2,10,0.38
2013-2-27,36,33,32,33,31,30,91,90,87,29.53,29.40,7,1,7,0.09
2013-2-28,41,34,30,35,29,24,90,84,73,29.90,29.50,8,2,8,0.33